createdAt,value
2019-05-11T00:02:16.687Z,25.60
2019-05-11T00:04:44.170Z,25.60
2019-05-11T00:07:11.868Z,25.60
2019-05-11T00:09:38.999Z,25.50
2019-05-11T00:12:06.381Z,25.50
2019-05-11T00:14:33.454Z,25.50
2019-05-11T00:17:00.615Z,25.60
2019-05-11T00:19:27.973Z,25.50
2019-05-11T00:21:55.268Z,25.60
2019-05-11T00:24:22.133Z,25.60
2019-05-11T00:26:48.979Z,25.60
2019-05-11T00:29:16.454Z,25.60
2019-05-11T00:31:48.134Z,25.50
2019-05-11T00:34:15.816Z,25.50
2019-05-11T00:36:42.627Z,25.40
2019-05-11T00:39:12.939Z,25.40
2019-05-11T00:41:40.079Z,25.30
2019-05-11T00:44:07.336Z,25.30
2019-05-11T00:46:34.924Z,25.20
2019-05-11T00:49:01.679Z,25.20
2019-05-11T00:51:29.103Z,25.10
2019-05-11T00:53:56.440Z,25.10
2019-05-11T00:56:23.373Z,25.10
2019-05-11T00:58:51.042Z,25.10
2019-05-11T01:01:18.032Z,25.00
2019-05-11T01:03:44.879Z,25.00
2019-05-11T01:06:12.822Z,24.90
2019-05-11T01:08:39.507Z,24.80
2019-05-11T01:11:06.314Z,24.80
2019-05-11T01:13:33.543Z,24.80
2019-05-11T01:16:00.703Z,24.80
2019-05-11T01:18:27.747Z,24.70
2019-05-11T01:20:56.352Z,24.70
2019-05-11T01:23:23.402Z,24.70
2019-05-11T01:25:50.433Z,24.70
2019-05-11T01:28:20.939Z,24.70
2019-05-11T01:30:48.212Z,24.70
2019-05-11T01:33:15.256Z,24.70
2019-05-11T01:35:42.329Z,24.70
2019-05-11T01:38:08.993Z,24.60
2019-05-11T01:40:35.825Z,24.60
2019-05-11T01:43:03.041Z,24.60
2019-05-11T01:45:30.023Z,24.60
2019-05-11T01:47:57.056Z,24.60
2019-05-11T01:50:24.019Z,24.60
2019-05-11T01:52:50.707Z,24.60
2019-05-11T01:55:17.495Z,24.60
2019-05-11T01:57:44.451Z,24.60
2019-05-11T02:00:11.791Z,24.60
2019-05-11T02:02:38.867Z,24.50
2019-05-11T02:05:25.035Z,24.50
2019-05-11T02:07:52.097Z,24.40
2019-05-11T02:10:19.255Z,24.40
2019-05-11T02:12:46.485Z,24.40
2019-05-11T02:15:13.726Z,24.50
2019-05-11T02:17:40.514Z,24.50
2019-05-11T02:20:08.969Z,24.50
2019-05-11T02:22:35.827Z,24.60
2019-05-11T02:25:04.963Z,24.60
2019-05-11T02:27:32.358Z,24.50
2019-05-11T02:29:59.320Z,24.50
2019-05-11T02:32:26.256Z,24.50
2019-05-11T02:34:53.613Z,24.50
2019-05-11T02:37:20.465Z,24.60
2019-05-11T02:39:47.580Z,24.60
2019-05-11T02:42:14.884Z,24.60
2019-05-11T02:44:41.640Z,24.60
2019-05-11T02:47:08.391Z,24.60
2019-05-11T02:49:35.304Z,24.60
2019-05-11T02:52:01.973Z,24.60
2019-05-11T02:54:29.641Z,24.60
2019-05-11T02:56:56.436Z,24.50
2019-05-11T02:59:22.990Z,24.40
2019-05-11T03:01:49.657Z,24.40
2019-05-11T03:04:16.757Z,24.30
2019-05-11T03:06:43.431Z,24.30
2019-05-11T03:09:10.782Z,24.40
2019-05-11T03:11:53.984Z,24.40
2019-05-11T03:14:08.009Z,24.40
2019-05-11T03:16:34.780Z,24.50
2019-05-11T03:19:01.709Z,24.50
2019-05-11T03:21:28.357Z,24.50
2019-05-11T03:23:55.046Z,24.60
2019-05-11T03:26:22.157Z,24.60
2019-05-11T03:28:48.812Z,24.70
2019-05-11T03:31:15.565Z,24.70
2019-05-11T03:33:42.570Z,24.80
2019-05-11T03:36:09.318Z,25.00
2019-05-11T03:38:37.296Z,25.10
2019-05-11T03:41:04.349Z,25.20
2019-05-11T03:43:30.993Z,25.30
2019-05-11T03:45:57.756Z,25.40
2019-05-11T03:48:24.669Z,25.60
2019-05-11T03:50:51.535Z,25.70
2019-05-11T03:53:18.206Z,25.90
2019-05-11T03:55:45.160Z,26.00
2019-05-11T03:58:11.745Z,26.20
2019-05-11T04:00:38.501Z,26.30
2019-05-11T04:03:05.703Z,26.50
2019-05-11T04:05:32.355Z,26.70
2019-05-11T04:07:59.151Z,26.90
2019-05-11T04:10:26.147Z,27.00
2019-05-11T04:12:52.949Z,27.20
2019-05-11T04:15:19.793Z,27.30
2019-05-11T04:17:47.687Z,27.40
2019-05-11T04:20:14.744Z,27.60
2019-05-11T04:22:41.292Z,27.70
2019-05-11T04:25:10.093Z,27.80
2019-05-11T04:27:36.697Z,27.90
2019-05-11T04:30:06.724Z,28.00
2019-05-11T04:32:33.536Z,28.00
2019-05-11T04:35:00.403Z,28.10
2019-05-11T04:37:26.985Z,28.20
2019-05-11T04:39:53.880Z,28.20
2019-05-11T04:42:20.458Z,28.30
2019-05-11T04:44:51.646Z,28.30
2019-05-11T04:47:16.054Z,28.30
2019-05-11T04:49:42.738Z,28.30
2019-05-11T04:52:09.489Z,28.30
2019-05-11T04:54:36.585Z,28.40
2019-05-11T04:57:03.241Z,28.40
2019-05-11T04:59:29.913Z,28.40
2019-05-11T05:01:56.733Z,28.40
2019-05-11T05:04:23.649Z,28.30
2019-05-11T05:06:59.615Z,28.40
2019-05-11T05:09:19.834Z,28.40
2019-05-11T05:11:46.715Z,28.30
2019-05-11T05:14:13.507Z,28.40
2019-05-11T05:16:40.429Z,28.40
2019-05-11T05:19:07.062Z,28.40
2019-05-11T05:21:33.705Z,28.50
2019-05-11T05:24:00.786Z,28.50
2019-05-11T05:26:27.656Z,28.60
2019-05-11T05:28:55.030Z,28.80
2019-05-11T05:31:22.463Z,28.80
2019-05-11T05:33:49.678Z,28.90
2019-05-11T05:36:16.583Z,28.90
2019-05-11T05:38:43.900Z,28.90
2019-05-11T05:41:10.732Z,28.90
2019-05-11T05:43:37.674Z,28.90
2019-05-11T05:46:05.115Z,28.90
2019-05-11T05:48:32.585Z,28.80
2019-05-11T05:50:59.636Z,28.80
2019-05-11T05:53:26.891Z,28.80
2019-05-11T05:55:53.734Z,28.80
2019-05-11T05:58:20.483Z,28.80
2019-05-11T06:00:47.341Z,28.70
2019-05-11T06:03:14.476Z,28.70
2019-05-11T06:05:41.297Z,28.70
2019-05-11T06:08:08.448Z,28.70
2019-05-11T06:10:35.226Z,28.80
2019-05-11T06:13:02.006Z,28.80
2019-05-11T06:15:29.027Z,28.80
2019-05-11T06:17:59.832Z,28.90
2019-05-11T06:20:24.504Z,28.90
2019-05-11T06:22:51.607Z,29.00
2019-05-11T06:25:18.716Z,29.10
2019-05-11T06:27:45.781Z,29.20
2019-05-11T06:30:14.267Z,29.40
2019-05-11T06:32:41.953Z,29.60
2019-05-11T06:35:08.880Z,29.80
2019-05-11T06:37:36.134Z,29.90
2019-05-11T06:40:07.228Z,30.10
2019-05-11T06:42:33.965Z,30.10
2019-05-11T06:45:01.064Z,30.30
2019-05-11T06:47:27.877Z,30.50
2019-05-11T06:49:54.677Z,30.60
2019-05-11T06:52:21.576Z,30.70
2019-05-11T06:54:48.357Z,30.80
2019-05-11T06:57:15.050Z,30.80
2019-05-11T06:59:42.095Z,31.00
2019-05-11T07:02:08.766Z,31.10
2019-05-11T07:04:35.521Z,31.20
2019-05-11T07:07:02.772Z,31.30
2019-05-11T07:09:29.541Z,31.40
2019-05-11T07:11:56.520Z,31.50
2019-05-11T07:14:23.797Z,31.60
2019-05-11T07:16:51.710Z,31.60
2019-05-11T07:19:18.610Z,31.70
2019-05-11T07:21:45.811Z,31.70
2019-05-11T07:24:12.583Z,31.80
2019-05-11T07:26:39.642Z,31.90
2019-05-11T07:29:07.740Z,32.00
2019-05-11T07:31:34.948Z,32.10
2019-05-11T07:34:01.713Z,32.30
2019-05-11T07:36:28.777Z,32.40
2019-05-11T07:38:57.854Z,32.50
2019-05-11T07:41:24.404Z,32.60
2019-05-11T07:43:51.515Z,32.70
2019-05-11T07:46:18.382Z,32.90
2019-05-11T07:48:45.141Z,33.10
2019-05-11T07:51:12.292Z,33.40
2019-05-11T07:53:39.234Z,33.50
2019-05-11T07:56:08.328Z,33.80
2019-05-11T07:58:35.188Z,34.20
2019-05-11T08:01:02.019Z,34.50
2019-05-11T08:03:28.966Z,34.90
2019-05-11T08:05:58.086Z,35.20
2019-05-11T08:08:25.273Z,35.60
2019-05-11T08:10:52.139Z,35.80
2019-05-11T08:13:19.502Z,36.00
2019-05-11T08:15:48.809Z,36.10
2019-05-11T08:18:16.162Z,36.00
2019-05-11T08:20:43.457Z,35.80
2019-05-11T08:23:10.658Z,35.60
2019-05-11T08:25:37.982Z,35.50
2019-05-11T08:28:09.494Z,35.50
2019-05-11T08:30:54.439Z,35.60
2019-05-11T08:33:21.843Z,35.80
2019-05-11T08:35:48.605Z,36.20
2019-05-11T08:38:18.056Z,36.50
2019-05-11T08:40:45.425Z,36.80
2019-05-11T08:43:12.565Z,37.10
2019-05-11T08:45:39.803Z,37.40
2019-05-11T08:48:08.165Z,37.50
2019-05-11T08:50:35.440Z,37.40
2019-05-11T08:53:03.450Z,37.20
2019-05-11T08:55:31.390Z,36.90
2019-05-11T08:57:58.686Z,36.60
2019-05-11T09:00:28.398Z,36.20
2019-05-11T09:02:58.032Z,36.00
2019-05-11T09:05:24.388Z,35.80
2019-05-11T09:07:51.300Z,35.80
2019-05-11T09:10:19.411Z,36.00
2019-05-11T09:12:48.608Z,36.20
2019-05-11T09:15:29.981Z,36.50
2019-05-11T09:17:43.864Z,36.60
2019-05-11T09:20:11.088Z,36.70
2019-05-11T09:22:38.210Z,36.90
2019-05-11T09:25:08.634Z,37.00
2019-05-11T09:27:35.063Z,37.20
2019-05-11T09:30:08.406Z,37.50
2019-05-11T09:32:35.261Z,37.60
2019-05-11T09:35:03.203Z,37.70
2019-05-11T09:37:30.756Z,37.70
2019-05-11T09:39:58.487Z,37.70
2019-05-11T09:42:25.592Z,37.70
2019-05-11T09:44:52.846Z,37.70
2019-05-11T09:47:19.641Z,37.70
2019-05-11T09:49:50.115Z,37.60
2019-05-11T09:52:18.101Z,37.50
2019-05-11T09:54:44.722Z,37.40
2019-05-11T09:57:12.152Z,37.20
2019-05-11T09:59:39.198Z,37.10
2019-05-11T10:02:07.952Z,37.00
2019-05-11T10:04:35.269Z,37.00
2019-05-11T10:07:02.264Z,37.00
2019-05-11T10:09:29.251Z,36.90
2019-05-11T10:11:58.445Z,36.80
2019-05-11T10:14:25.629Z,36.50
2019-05-11T10:16:52.504Z,36.20
2019-05-11T10:19:19.554Z,35.80
2019-05-11T10:21:48.719Z,35.50
2019-05-11T10:24:17.771Z,35.30
2019-05-11T10:26:45.268Z,35.20
2019-05-11T10:29:12.810Z,35.20
2019-05-11T10:31:39.948Z,35.20
2019-05-11T10:34:08.660Z,35.20
2019-05-11T10:36:38.329Z,35.20
2019-05-11T10:39:07.893Z,35.40
2019-05-11T10:41:34.836Z,35.50
2019-05-11T10:44:02.077Z,35.60
2019-05-11T10:46:28.884Z,35.70
2019-05-11T10:48:55.777Z,35.80
2019-05-11T10:51:23.105Z,35.90
2019-05-11T10:53:52.130Z,35.90
2019-05-11T10:56:19.206Z,36.00
2019-05-11T10:58:48.206Z,36.00
2019-05-11T11:01:15.131Z,36.10
2019-05-11T11:03:42.414Z,36.10
2019-05-11T11:06:09.663Z,36.20
2019-05-11T11:08:38.279Z,36.20
2019-05-11T11:11:07.901Z,36.20
2019-05-11T11:13:35.230Z,36.20
2019-05-11T11:16:02.221Z,36.30
2019-05-11T11:18:29.252Z,36.30
2019-05-11T11:20:58.103Z,36.20
2019-05-11T11:23:25.287Z,36.00
2019-05-11T11:25:52.450Z,35.90
2019-05-11T11:28:19.893Z,35.80
2019-05-11T11:30:48.104Z,35.80
2019-05-11T11:33:15.026Z,35.80
2019-05-11T11:35:42.216Z,36.00
2019-05-11T11:38:09.131Z,36.10
2019-05-11T11:40:36.033Z,36.10
2019-05-11T11:43:03.247Z,36.10
2019-05-11T11:45:30.276Z,36.20
2019-05-11T11:47:58.031Z,36.20
2019-05-11T11:50:27.739Z,36.30
2019-05-11T11:52:54.507Z,36.30
2019-05-11T11:55:21.407Z,36.20
2019-05-11T11:57:50.410Z,36.20
2019-05-11T12:00:18.268Z,36.30
2019-05-11T12:02:45.283Z,36.40
2019-05-11T12:05:12.507Z,36.60
2019-05-11T12:07:39.645Z,36.70
2019-05-11T12:10:12.138Z,36.80
2019-05-11T12:12:40.090Z,36.70
2019-05-11T12:15:08.834Z,36.60
2019-05-11T12:17:37.676Z,36.40
2019-05-11T12:20:18.287Z,36.20
2019-05-11T12:22:47.480Z,35.90
2019-05-11T12:25:13.786Z,35.70
2019-05-11T12:27:41.255Z,35.40
2019-05-11T12:30:09.116Z,35.30
2019-05-11T12:32:41.253Z,35.10
2019-05-11T12:35:08.645Z,35.00
2019-05-11T12:37:37.613Z,34.90
2019-05-11T12:40:08.484Z,34.80
2019-05-11T12:42:38.062Z,34.80
2019-05-11T12:45:07.532Z,34.70
2019-05-11T12:47:34.523Z,34.70
2019-05-11T12:50:03.598Z,34.70
2019-05-11T12:52:30.377Z,34.60
2019-05-11T12:54:58.329Z,34.70
2019-05-11T12:57:28.093Z,34.70
2019-05-11T12:59:55.225Z,34.70
2019-05-11T13:02:23.454Z,34.70
2019-05-11T13:04:50.740Z,34.60
2019-05-11T13:07:19.624Z,34.60
2019-05-11T13:09:48.433Z,34.60
2019-05-11T13:12:15.892Z,34.60
2019-05-11T13:14:43.015Z,34.50
2019-05-11T13:17:11.185Z,34.50
2019-05-11T13:19:38.778Z,34.60
2019-05-11T13:22:07.756Z,34.60
2019-05-11T13:24:34.193Z,34.70
2019-05-11T13:27:01.239Z,34.90
2019-05-11T13:29:28.649Z,34.90
2019-05-11T13:31:55.678Z,35.00
2019-05-11T13:34:22.809Z,35.10
2019-05-11T13:36:50.696Z,35.20
2019-05-11T13:39:18.518Z,35.30
2019-05-11T13:41:47.479Z,35.40
2019-05-11T13:44:14.338Z,35.50
2019-05-11T13:46:41.241Z,35.70
2019-05-11T13:49:08.693Z,36.00
2019-05-11T13:51:35.536Z,36.20
2019-05-11T13:54:02.450Z,36.30
2019-05-11T13:56:31.873Z,36.40
2019-05-11T13:59:00.385Z,36.50
2019-05-11T14:01:27.896Z,36.60
2019-05-11T14:03:55.751Z,36.50
2019-05-11T14:06:22.891Z,36.20
2019-05-11T14:08:49.716Z,36.00
2019-05-11T14:11:18.167Z,35.70
2019-05-11T14:13:45.279Z,35.60
2019-05-11T14:16:12.222Z,35.60
2019-05-11T14:18:39.387Z,35.50
2019-05-11T14:21:08.002Z,35.40
2019-05-11T14:23:34.995Z,35.30
2019-05-11T14:26:01.961Z,35.30
2019-05-11T14:28:28.746Z,35.30
2019-05-11T14:30:57.735Z,35.40
2019-05-11T14:33:25.241Z,35.40
2019-05-11T14:35:52.141Z,35.40
2019-05-11T14:38:19.085Z,35.30
2019-05-11T14:40:48.060Z,35.30
2019-05-11T14:43:15.031Z,35.20
2019-05-11T14:45:41.843Z,35.10
2019-05-11T14:48:22.908Z,35.10
2019-05-11T14:50:38.617Z,35.00
2019-05-11T14:53:08.176Z,35.00
2019-05-11T14:55:35.299Z,35.00
2019-05-11T14:58:02.415Z,35.10
2019-05-11T15:00:29.645Z,35.20
2019-05-11T15:02:58.462Z,35.20
2019-05-11T15:05:25.598Z,35.30
2019-05-11T15:07:53.114Z,35.40
2019-05-11T15:10:21.446Z,35.60
2019-05-11T15:12:49.045Z,35.60
2019-05-11T15:15:18.551Z,35.80
2019-05-11T15:17:48.865Z,35.80
2019-05-11T15:20:17.531Z,35.90
2019-05-11T15:22:44.813Z,36.00
2019-05-11T15:25:14.530Z,36.00
2019-05-11T15:27:41.433Z,36.20
2019-05-11T15:30:08.774Z,36.20
2019-05-11T15:32:37.529Z,36.40
2019-05-11T15:35:04.393Z,36.40
2019-05-11T15:37:32.036Z,36.50
2019-05-11T15:40:18.570Z,36.60
2019-05-11T15:42:48.370Z,36.60
2019-05-11T15:45:18.627Z,36.70
2019-05-11T15:47:45.341Z,36.80
2019-05-11T15:50:14.203Z,36.80
2019-05-11T15:52:40.971Z,36.80
2019-05-11T15:55:10.910Z,36.70
2019-05-11T15:57:39.637Z,36.60
2019-05-11T16:00:08.973Z,36.60
2019-05-11T16:02:37.845Z,36.70
2019-05-11T16:05:08.576Z,36.80
2019-05-11T16:07:38.270Z,36.80
2019-05-11T16:10:08.184Z,36.90
2019-05-11T16:12:35.322Z,36.90
2019-05-11T16:15:04.920Z,36.90
2019-05-11T16:17:32.795Z,36.90
2019-05-11T16:20:00.116Z,36.90
2019-05-11T16:22:27.966Z,36.80
2019-05-11T16:24:55.225Z,36.70
2019-05-11T16:27:22.996Z,36.70
2019-05-11T16:29:49.978Z,36.70
2019-05-11T16:32:17.153Z,36.70
2019-05-11T16:34:44.166Z,36.70
2019-05-11T16:37:11.519Z,36.70
2019-05-11T16:39:38.628Z,36.50
2019-05-11T16:42:08.296Z,36.50
2019-05-11T16:44:34.512Z,36.40
2019-05-11T16:47:01.684Z,36.20
2019-05-11T16:49:32.497Z,36.20
2019-05-11T16:52:00.038Z,36.10
2019-05-11T16:54:28.038Z,36.10
2019-05-11T16:56:57.755Z,36.10
2019-05-11T16:59:24.253Z,36.00
2019-05-11T17:01:51.882Z,36.00
2019-05-11T17:04:19.020Z,35.90
2019-05-11T17:06:48.493Z,35.80
2019-05-11T17:09:17.854Z,35.70
2019-05-11T17:11:44.738Z,35.60
2019-05-11T17:14:11.571Z,35.40
2019-05-11T17:16:38.916Z,35.40
2019-05-11T17:19:07.878Z,35.30
2019-05-11T17:21:34.562Z,35.30
2019-05-11T17:24:02.372Z,35.30
2019-05-11T17:26:29.396Z,35.30
2019-05-11T17:28:58.146Z,35.30
2019-05-11T17:31:25.582Z,35.30
2019-05-11T17:33:52.769Z,35.20
2019-05-11T17:36:20.120Z,35.10
2019-05-11T17:38:47.949Z,35.00
2019-05-11T17:41:15.758Z,34.90
2019-05-11T17:43:42.858Z,34.70
2019-05-11T17:46:10.201Z,34.70
2019-05-11T17:48:38.848Z,34.50
2019-05-11T17:51:20.013Z,34.30
2019-05-11T17:53:37.623Z,34.30
2019-05-11T17:56:04.093Z,34.00
2019-05-11T17:58:31.050Z,33.90
2019-05-11T18:00:58.970Z,33.70
2019-05-11T18:03:28.838Z,33.60
2019-05-11T18:05:55.752Z,33.40
2019-05-11T18:08:23.433Z,33.30
2019-05-11T18:10:50.478Z,33.10
2019-05-11T18:13:17.651Z,33.00
2019-05-11T18:15:46.483Z,32.80
2019-05-11T18:18:13.301Z,32.70
2019-05-11T18:20:40.681Z,32.60
2019-05-11T18:23:08.384Z,32.50
2019-05-11T18:25:35.660Z,32.30
2019-05-11T18:28:03.922Z,32.20
2019-05-11T18:30:31.578Z,32.10
2019-05-11T18:32:59.620Z,31.90
2019-05-11T18:35:27.903Z,31.80
2019-05-11T18:37:55.679Z,31.70
2019-05-11T18:40:23.019Z,31.60
2019-05-11T18:42:50.314Z,31.50
2019-05-11T18:45:18.826Z,31.50
2019-05-11T18:47:48.911Z,31.40
2019-05-11T18:50:29.292Z,31.40
2019-05-11T18:52:45.070Z,31.30
2019-05-11T18:55:12.925Z,31.20
2019-05-11T18:57:42.301Z,31.00
2019-05-11T19:00:10.186Z,31.00
2019-05-11T19:02:38.521Z,30.90
2019-05-11T19:05:05.855Z,30.80
2019-05-11T19:07:33.493Z,30.70
2019-05-11T19:10:00.499Z,30.70
2019-05-11T19:12:28.001Z,30.70
2019-05-11T19:14:55.238Z,30.60
2019-05-11T19:17:24.156Z,30.60
2019-05-11T19:19:51.344Z,30.60
2019-05-11T19:22:18.829Z,30.60
2019-05-11T19:24:47.590Z,30.60
2019-05-11T19:27:14.627Z,30.60
2019-05-11T19:29:42.147Z,30.60
2019-05-11T19:32:11.164Z,30.60
2019-05-11T19:34:38.804Z,30.60
2019-05-11T19:37:08.466Z,30.60
2019-05-11T19:39:38.275Z,30.50
2019-05-11T19:42:04.796Z,30.50
2019-05-11T19:44:31.836Z,30.50
2019-05-11T19:46:58.869Z,30.40
2019-05-11T19:49:27.929Z,30.40
2019-05-11T19:51:55.323Z,30.30
2019-05-11T19:54:22.470Z,30.30
2019-05-11T19:56:52.267Z,30.10
2019-05-11T19:59:18.727Z,30.10
2019-05-11T20:01:45.709Z,30.00
2019-05-11T20:04:12.712Z,29.90
2019-05-11T20:06:39.866Z,29.90
2019-05-11T20:09:08.769Z,29.80
2019-05-11T20:11:38.231Z,29.80
2019-05-11T20:14:04.745Z,29.80
2019-05-11T20:16:32.170Z,29.80
2019-05-11T20:19:01.899Z,29.70
2019-05-11T20:21:30.129Z,29.70
2019-05-11T20:23:57.868Z,29.70
2019-05-11T20:26:25.391Z,29.60
2019-05-11T20:28:53.562Z,29.60
2019-05-11T20:31:20.687Z,29.50
2019-05-11T20:33:48.125Z,29.50
2019-05-11T20:36:17.804Z,29.50
2019-05-11T20:38:44.637Z,29.40
2019-05-11T20:41:11.850Z,29.40
2019-05-11T20:43:39.126Z,29.50
2019-05-11T20:46:08.044Z,29.50
2019-05-11T20:48:35.059Z,29.60
2019-05-11T20:51:02.047Z,29.60
2019-05-11T20:53:28.938Z,29.70
2019-05-11T20:55:58.130Z,29.70
2019-05-11T20:58:25.709Z,29.70
2019-05-11T21:00:54.300Z,29.80
2019-05-11T21:03:21.633Z,29.80
2019-05-11T21:05:49.951Z,29.90
2019-05-11T21:08:17.745Z,30.00
2019-05-11T21:10:45.446Z,30.00
2019-05-11T21:13:12.653Z,30.00
2019-05-11T21:15:40.616Z,30.00
2019-05-11T21:18:07.917Z,30.00
2019-05-11T21:20:37.786Z,30.00
2019-05-11T21:23:04.212Z,30.00
2019-05-11T21:25:31.239Z,30.00
2019-05-11T21:27:58.781Z,29.90
2019-05-11T21:30:25.845Z,29.90
2019-05-11T21:32:52.990Z,29.90
2019-05-11T21:35:20.145Z,29.80
2019-05-11T21:37:48.750Z,29.70
2019-05-11T21:40:16.067Z,29.70
2019-05-11T21:42:43.220Z,29.60
2019-05-11T21:45:12.317Z,29.60
2019-05-11T21:47:39.878Z,29.50
2019-05-11T21:50:08.380Z,29.50
2019-05-11T21:52:38.157Z,29.40
2019-05-11T21:55:05.747Z,29.30
2019-05-11T21:57:32.879Z,29.30
2019-05-11T22:00:00.623Z,29.20
2019-05-11T22:02:28.730Z,29.20
2019-05-11T22:04:58.652Z,29.10
2019-05-11T22:07:25.748Z,29.10
2019-05-11T22:09:52.731Z,29.10
2019-05-11T22:12:19.821Z,29.00
2019-05-11T22:14:48.802Z,28.90
2019-05-11T22:17:15.420Z,28.90
2019-05-11T22:19:42.616Z,28.80
2019-05-11T22:22:21.539Z,28.70
2019-05-11T22:24:38.227Z,28.70
2019-05-11T22:27:07.887Z,28.70
2019-05-11T22:29:34.171Z,28.60
2019-05-11T22:32:02.109Z,28.60
2019-05-11T22:34:29.303Z,28.50
2019-05-11T22:36:58.195Z,28.50
2019-05-11T22:39:26.229Z,28.40
2019-05-11T22:41:53.310Z,28.40
2019-05-11T22:44:20.096Z,28.40
2019-05-11T22:46:47.869Z,28.30
2019-05-11T22:49:15.157Z,28.30
2019-05-11T22:51:41.990Z,28.20
2019-05-11T22:54:11.109Z,28.20
2019-05-11T22:56:38.445Z,28.10
2019-05-11T22:59:05.387Z,28.10
2019-05-11T23:01:32.372Z,28.10
2019-05-11T23:03:59.608Z,28.00
2019-05-11T23:06:26.634Z,28.00
2019-05-11T23:08:54.207Z,27.90
2019-05-11T23:11:21.366Z,27.90
2019-05-11T23:13:48.284Z,27.80
2019-05-11T23:16:17.761Z,27.80
2019-05-11T23:18:44.741Z,27.70
2019-05-11T23:21:11.520Z,27.70
2019-05-11T23:23:38.312Z,27.70
2019-05-11T23:26:05.490Z,27.70
2019-05-11T23:28:32.328Z,27.60
2019-05-11T23:30:59.876Z,27.60
2019-05-11T23:33:27.863Z,27.50
2019-05-11T23:35:54.751Z,27.50
2019-05-11T23:38:21.648Z,27.40
2019-05-11T23:40:48.890Z,27.40
2019-05-11T23:43:16.075Z,27.30
2019-05-11T23:45:43.090Z,27.30
2019-05-11T23:48:10.284Z,27.20
2019-05-11T23:50:38.628Z,27.20
2019-05-11T23:53:07.498Z,27.10
2019-05-11T23:55:34.481Z,27.00
2019-05-11T23:58:01.269Z,27.00
